createdAt,value
2023-03-13T00:01:28.301Z,9.16
2023-03-13T00:03:30.871Z,9.14
2023-03-13T00:05:36.390Z,9.11
2023-03-13T00:07:38.983Z,9.09
2023-03-13T00:09:42.892Z,9.07
2023-03-13T00:11:47.143Z,9.03
2023-03-13T00:13:49.708Z,9.05
2023-03-13T00:16:00.793Z,9.02
2023-03-13T00:18:03.377Z,9.01
2023-03-13T00:20:07.335Z,8.99
2023-03-13T00:22:09.904Z,8.99
2023-03-13T00:24:13.221Z,9.01
2023-03-13T00:26:19.075Z,9.00
2023-03-13T00:28:21.601Z,9.02
2023-03-13T00:30:24.221Z,9.04
2023-03-13T00:32:26.806Z,9.03
2023-03-13T00:34:29.367Z,9.03
2023-03-13T00:36:34.173Z,9.01
2023-03-13T00:38:37.285Z,9.01
2023-03-13T00:40:39.836Z,9.06
2023-03-13T00:42:43.724Z,9.06
2023-03-13T00:44:46.282Z,9.11
2023-03-13T00:46:48.802Z,9.08
2023-03-13T00:48:51.921Z,9.08
2023-03-13T00:50:54.871Z,9.07
2023-03-13T00:52:57.408Z,9.08
2023-03-13T00:54:59.947Z,9.09
2023-03-13T00:57:02.467Z,9.12
2023-03-13T00:59:06.667Z,9.12
2023-03-13T01:01:10.432Z,9.13
2023-03-13T01:03:13.074Z,9.14
2023-03-13T01:05:15.900Z,9.14
2023-03-13T01:07:18.440Z,9.15
2023-03-13T01:09:20.998Z,9.16
2023-03-13T01:11:25.177Z,9.16
2023-03-13T01:13:28.249Z,9.17
2023-03-13T01:15:32.193Z,9.15
2023-03-13T01:17:34.719Z,9.12
2023-03-13T01:19:37.267Z,9.13
2023-03-13T01:21:40.202Z,9.10
2023-03-13T01:23:43.162Z,9.10
2023-03-13T01:25:45.735Z,9.11
2023-03-13T01:27:48.293Z,9.11
2023-03-13T01:29:50.853Z,9.10
2023-03-13T01:31:54.796Z,9.11
2023-03-13T01:33:59.393Z,9.11
2023-03-13T01:36:03.473Z,9.13
2023-03-13T01:38:06.078Z,9.14
2023-03-13T01:40:09.838Z,9.19
2023-03-13T01:42:12.383Z,9.21
2023-03-13T01:44:23.298Z,9.19
2023-03-13T01:46:27.945Z,9.24
2023-03-13T01:48:38.509Z,9.23
2023-03-13T01:50:41.178Z,9.23
2023-03-13T01:52:43.764Z,9.24
2023-03-13T01:54:49.533Z,9.24
2023-03-13T01:56:56.093Z,9.30
2023-03-13T01:58:59.745Z,9.41
2023-03-13T02:01:02.631Z,9.55
2023-03-13T02:03:10.039Z,9.58
2023-03-13T02:05:16.171Z,9.51
2023-03-13T02:07:22.722Z,9.49
2023-03-13T02:09:29.724Z,9.50
2023-03-13T02:11:41.589Z,9.61
2023-03-13T02:13:44.555Z,9.53
2023-03-13T02:15:48.075Z,9.65
2023-03-13T02:17:51.652Z,9.61
2023-03-13T02:19:54.446Z,9.61
2023-03-13T02:22:07.839Z,9.73
2023-03-13T02:24:18.750Z,9.74
2023-03-13T02:26:22.694Z,9.70
2023-03-13T02:28:28.404Z,9.97
2023-03-13T02:30:33.071Z,9.90
2023-03-13T02:32:36.018Z,10.02
2023-03-13T02:34:42.004Z,10.01
2023-03-13T02:36:46.245Z,10.15
2023-03-13T02:38:54.691Z,10.34
2023-03-13T02:40:58.895Z,10.33
2023-03-13T02:43:09.970Z,10.27
2023-03-13T02:45:15.762Z,10.53
2023-03-13T02:47:21.956Z,10.33
2023-03-13T02:49:26.358Z,10.39
2023-03-13T02:51:36.007Z,10.24
2023-03-13T02:53:38.970Z,10.37
2023-03-13T02:55:43.269Z,10.33
2023-03-13T02:57:45.938Z,10.32
2023-03-13T02:59:49.815Z,10.43
2023-03-13T03:01:52.703Z,10.59
2023-03-13T03:03:55.719Z,10.63
2023-03-13T03:05:58.280Z,10.73
2023-03-13T03:08:00.868Z,10.69
2023-03-13T03:10:03.412Z,10.75
2023-03-13T03:12:06.635Z,10.75
2023-03-13T03:14:10.648Z,10.93
2023-03-13T03:16:18.633Z,10.79
2023-03-13T03:18:21.291Z,10.77
2023-03-13T03:20:23.826Z,10.81
2023-03-13T03:22:26.397Z,10.80
2023-03-13T03:24:29.142Z,10.98
2023-03-13T03:26:31.852Z,11.01
2023-03-13T03:28:34.857Z,10.96
2023-03-13T03:30:37.410Z,11.01
2023-03-13T03:32:44.220Z,11.21
2023-03-13T03:34:46.819Z,11.13
2023-03-13T03:36:49.358Z,11.05
2023-03-13T03:38:52.216Z,11.11
2023-03-13T03:40:54.748Z,11.10
2023-03-13T03:42:57.314Z,11.23
2023-03-13T03:45:00.161Z,11.21
2023-03-13T03:47:02.861Z,11.31
2023-03-13T03:49:06.983Z,11.14
2023-03-13T03:51:09.868Z,11.31
2023-03-13T03:53:12.396Z,11.13
2023-03-13T03:55:14.962Z,11.17
2023-03-13T03:57:17.560Z,11.20
2023-03-13T03:59:20.140Z,11.12
2023-03-13T04:01:22.681Z,11.10
2023-03-13T04:03:26.138Z,11.11
2023-03-13T04:05:30.068Z,11.01
2023-03-13T04:07:33.144Z,10.90
2023-03-13T04:09:35.826Z,11.07
2023-03-13T04:11:38.424Z,11.15
2023-03-13T04:13:40.957Z,10.91
2023-03-13T04:15:43.873Z,10.99
2023-03-13T04:17:46.428Z,11.10
2023-03-13T04:19:48.963Z,10.98
2023-03-13T04:21:52.855Z,11.10
2023-03-13T04:23:55.416Z,11.01
2023-03-13T04:25:58.037Z,11.06
2023-03-13T04:28:00.652Z,11.11
2023-03-13T04:30:03.356Z,11.09
2023-03-13T04:32:06.342Z,11.13
2023-03-13T04:34:08.878Z,11.00
2023-03-13T04:36:11.440Z,10.85
2023-03-13T04:38:15.351Z,10.81
2023-03-13T04:40:18.081Z,10.74
2023-03-13T04:42:20.644Z,10.73
2023-03-13T04:44:23.707Z,10.94
2023-03-13T04:46:26.365Z,10.87
2023-03-13T04:48:28.978Z,10.77
2023-03-13T04:50:31.541Z,10.87
2023-03-13T04:52:34.121Z,10.89
2023-03-13T04:54:38.144Z,10.85
2023-03-13T04:56:44.020Z,10.96
2023-03-13T04:58:47.101Z,10.87
2023-03-13T05:00:49.676Z,11.07
2023-03-13T05:02:53.161Z,11.05
2023-03-13T05:04:55.735Z,11.05
2023-03-13T05:06:58.354Z,11.07
2023-03-13T05:09:01.245Z,11.04
2023-03-13T05:11:07.947Z,11.02
2023-03-13T05:13:10.668Z,11.10
2023-03-13T05:15:13.236Z,11.13
2023-03-13T05:17:15.790Z,11.19
2023-03-13T05:19:18.397Z,11.20
2023-03-13T05:21:20.933Z,11.10
2023-03-13T05:23:23.771Z,11.26
2023-03-13T05:25:26.401Z,11.15
2023-03-13T05:27:30.292Z,11.36
2023-03-13T05:29:32.885Z,11.34
2023-03-13T05:31:35.475Z,11.06
2023-03-13T05:33:38.079Z,11.28
2023-03-13T05:35:40.712Z,11.37
2023-03-13T05:37:43.899Z,11.52
2023-03-13T05:39:46.528Z,11.38
2023-03-13T05:41:49.105Z,11.43
2023-03-13T05:43:52.979Z,11.55
2023-03-13T05:45:55.564Z,11.59
2023-03-13T05:47:58.876Z,11.45
2023-03-13T05:50:01.429Z,11.49
2023-03-13T05:52:04.059Z,11.43
2023-03-13T05:54:06.699Z,11.47
2023-03-13T05:56:09.251Z,11.46
2023-03-13T05:58:11.886Z,11.42
2023-03-13T06:00:17.954Z,11.37
2023-03-13T06:02:20.802Z,11.29
2023-03-13T06:04:23.768Z,11.33
2023-03-13T06:06:26.421Z,11.39
2023-03-13T06:08:29.042Z,11.50
2023-03-13T06:10:31.618Z,11.57
2023-03-13T06:12:34.183Z,11.47
2023-03-13T06:14:37.840Z,11.72
2023-03-13T06:16:41.956Z,11.57
2023-03-13T06:18:44.493Z,11.59
2023-03-13T06:20:47.028Z,11.60
2023-03-13T06:22:49.597Z,11.47
2023-03-13T06:24:52.198Z,11.58
2023-03-13T06:26:54.839Z,11.57
2023-03-13T06:28:57.484Z,11.61
2023-03-13T06:31:02.833Z,11.63
2023-03-13T06:33:06.998Z,11.75
2023-03-13T06:35:11.152Z,11.71
2023-03-13T06:37:13.821Z,11.68
2023-03-13T06:39:16.370Z,11.87
2023-03-13T06:41:19.016Z,11.83
2023-03-13T06:43:22.213Z,11.73
2023-03-13T06:45:24.772Z,11.73
2023-03-13T06:47:27.335Z,11.79
2023-03-13T06:49:31.402Z,11.71
2023-03-13T06:51:34.321Z,11.82
2023-03-13T06:53:36.848Z,11.79
2023-03-13T06:55:39.373Z,11.68
2023-03-13T06:57:42.003Z,11.81
2023-03-13T06:59:44.573Z,11.89
2023-03-13T07:01:47.127Z,11.87
2023-03-13T07:03:50.019Z,11.74
2023-03-13T07:05:58.106Z,11.77
2023-03-13T07:08:01.085Z,11.81
2023-03-13T07:10:04.825Z,11.69
2023-03-13T07:12:08.090Z,11.74
2023-03-13T07:14:16.906Z,11.68
2023-03-13T07:16:20.207Z,11.59
2023-03-13T07:18:23.402Z,11.81
2023-03-13T07:20:26.030Z,11.83
2023-03-13T07:22:29.970Z,11.93
2023-03-13T07:24:32.583Z,11.85
2023-03-13T07:26:35.204Z,11.86
2023-03-13T07:28:38.113Z,11.89
2023-03-13T07:30:40.731Z,11.75
2023-03-13T07:32:43.363Z,11.59
2023-03-13T07:34:45.938Z,11.66
2023-03-13T07:36:48.557Z,11.79
2023-03-13T07:38:53.419Z,11.80
2023-03-13T07:40:57.634Z,12.00
2023-03-13T07:43:00.164Z,12.03
2023-03-13T07:45:02.882Z,12.13
2023-03-13T07:47:05.864Z,12.05
2023-03-13T07:49:08.769Z,12.08
2023-03-13T07:51:13.606Z,12.15
2023-03-13T07:53:21.008Z,12.06
2023-03-13T07:55:24.941Z,12.18
2023-03-13T07:57:27.520Z,12.23
2023-03-13T07:59:30.504Z,12.10
2023-03-13T08:01:33.059Z,12.12
2023-03-13T08:03:35.684Z,12.31
2023-03-13T08:05:38.273Z,12.30
2023-03-13T08:07:40.853Z,12.24
2023-03-13T08:09:43.666Z,12.29
2023-03-13T08:11:48.847Z,12.25
2023-03-13T08:13:51.804Z,12.38
2023-03-13T08:15:54.328Z,12.32
2023-03-13T08:17:57.487Z,12.54
2023-03-13T08:20:00.018Z,12.61
2023-03-13T08:22:03.327Z,12.49
2023-03-13T08:24:08.079Z,12.36
2023-03-13T08:26:13.074Z,12.46
2023-03-13T08:28:16.990Z,12.49
2023-03-13T08:30:20.047Z,12.58
2023-03-13T08:32:23.002Z,12.49
2023-03-13T08:34:25.613Z,12.51
2023-03-13T08:36:30.681Z,12.51
2023-03-13T08:38:33.230Z,12.61
2023-03-13T08:40:35.792Z,12.69
2023-03-13T08:42:40.284Z,12.56
2023-03-13T08:44:44.442Z,12.65
2023-03-13T08:46:49.078Z,12.67
2023-03-13T08:48:52.248Z,12.70
2023-03-13T08:51:02.484Z,12.70
2023-03-13T08:53:05.029Z,12.67
2023-03-13T08:55:08.890Z,12.76
2023-03-13T08:57:11.571Z,12.73
2023-03-13T08:59:15.425Z,12.87
2023-03-13T09:01:19.720Z,12.95
2023-03-13T09:03:22.570Z,12.82
2023-03-13T09:05:25.189Z,13.03
2023-03-13T09:07:27.719Z,13.04
2023-03-13T09:09:30.295Z,12.97
2023-03-13T09:11:33.226Z,13.07
2023-03-13T09:13:38.199Z,13.10
2023-03-13T09:15:40.805Z,13.09
2023-03-13T09:17:44.748Z,13.10
2023-03-13T09:19:59.364Z,13.23
2023-03-13T09:22:02.514Z,13.03
2023-03-13T09:24:05.545Z,13.22
2023-03-13T09:26:08.205Z,13.29
2023-03-13T09:28:10.799Z,13.30
2023-03-13T09:30:14.101Z,13.20
2023-03-13T09:32:16.943Z,13.36
2023-03-13T09:34:23.225Z,13.39
2023-03-13T09:36:26.428Z,13.43
2023-03-13T09:38:28.991Z,13.59
2023-03-13T09:40:32.037Z,13.63
2023-03-13T09:42:45.262Z,13.74
2023-03-13T09:44:51.544Z,13.83
2023-03-13T09:47:02.615Z,13.93
2023-03-13T09:49:11.807Z,13.95
2023-03-13T09:51:20.522Z,14.02
2023-03-13T09:53:34.139Z,14.25
2023-03-13T09:55:39.533Z,14.15
2023-03-13T09:57:50.720Z,14.15
2023-03-13T09:59:58.549Z,14.20
2023-03-13T10:02:05.137Z,14.37
2023-03-13T10:04:15.161Z,14.21
2023-03-13T10:06:20.928Z,14.39
2023-03-13T10:08:25.264Z,14.23
2023-03-13T10:10:36.847Z,14.16
2023-03-13T10:12:44.957Z,14.47
2023-03-13T10:14:54.990Z,14.57
2023-03-13T10:17:03.724Z,14.55
2023-03-13T10:19:13.626Z,14.57
2023-03-13T10:21:20.712Z,14.56
2023-03-13T10:23:28.696Z,14.67
2023-03-13T10:25:34.061Z,14.69
2023-03-13T10:27:45.358Z,14.82
2023-03-13T10:29:47.940Z,14.79
2023-03-13T10:31:57.418Z,14.81
2023-03-13T10:34:07.182Z,14.97
2023-03-13T10:36:12.549Z,15.05
2023-03-13T10:38:19.639Z,15.05
2023-03-13T10:40:24.637Z,15.09
2023-03-13T10:42:29.343Z,15.11
2023-03-13T10:44:34.021Z,15.19
2023-03-13T10:46:41.809Z,15.09
2023-03-13T10:48:44.354Z,15.20
2023-03-13T10:50:48.619Z,15.07
2023-03-13T10:52:52.109Z,15.11
2023-03-13T10:55:00.867Z,15.24
2023-03-13T10:57:22.063Z,15.15
2023-03-13T10:59:26.665Z,15.17
2023-03-13T11:01:32.428Z,15.39
2023-03-13T11:03:35.112Z,15.44
2023-03-13T11:05:43.134Z,15.31
2023-03-13T11:07:46.236Z,15.36
2023-03-13T11:10:00.306Z,15.33
2023-03-13T11:12:06.133Z,15.23
2023-03-13T11:14:10.833Z,15.41
2023-03-13T11:16:20.599Z,15.60
2023-03-13T11:18:31.331Z,15.84
2023-03-13T11:20:37.591Z,15.82
2023-03-13T11:23:06.200Z,15.94
2023-03-13T11:25:21.757Z,16.00
2023-03-13T11:27:31.154Z,15.91
2023-03-13T11:29:44.098Z,15.98
2023-03-13T11:31:49.969Z,16.04
2023-03-13T11:33:59.638Z,16.15
2023-03-13T11:36:07.163Z,16.16
2023-03-13T11:38:19.920Z,16.11
2023-03-13T11:40:31.065Z,16.01
2023-03-13T11:43:21.653Z,16.10
2023-03-13T11:45:49.337Z,16.06
2023-03-13T11:48:00.008Z,15.97
2023-03-13T11:50:16.305Z,16.00
2023-03-13T11:52:31.348Z,16.08
2023-03-13T11:54:51.242Z,16.23
2023-03-13T11:56:58.246Z,16.13
2023-03-13T11:59:17.457Z,16.21
2023-03-13T12:01:21.717Z,16.30
2023-03-13T12:03:34.412Z,16.20
2023-03-13T12:05:45.529Z,16.11
2023-03-13T12:07:54.417Z,16.34
2023-03-13T12:10:00.637Z,16.32
2023-03-13T12:12:16.184Z,16.27
2023-03-13T12:14:23.335Z,16.41
2023-03-13T12:16:40.766Z,16.49
2023-03-13T12:18:46.011Z,16.68
2023-03-13T12:20:55.920Z,16.59
2023-03-13T12:23:17.009Z,16.67
2023-03-13T12:25:24.688Z,16.72
2023-03-13T12:27:32.819Z,16.92
2023-03-13T12:29:45.784Z,16.99
2023-03-13T12:31:54.203Z,17.12
2023-03-13T12:34:04.306Z,17.31
2023-03-13T12:36:14.496Z,17.33
2023-03-13T12:38:23.952Z,17.44
2023-03-13T12:40:32.033Z,17.54
2023-03-13T12:42:50.396Z,17.62
2023-03-13T12:44:53.370Z,17.65
2023-03-13T12:47:08.288Z,17.72
2023-03-13T12:49:47.209Z,17.79
2023-03-13T12:52:08.337Z,17.79
2023-03-13T12:54:33.112Z,17.91
2023-03-13T12:56:48.300Z,18.02
2023-03-13T12:58:55.590Z,18.12
2023-03-13T13:01:03.795Z,18.22
2023-03-13T13:03:17.253Z,18.37
2023-03-13T13:05:22.844Z,18.52
2023-03-13T13:07:27.630Z,18.70
2023-03-13T13:09:32.319Z,18.92
2023-03-13T13:11:48.332Z,19.17
2023-03-13T13:13:52.242Z,19.47
2023-03-13T13:16:02.193Z,20.01
2023-03-13T13:18:24.041Z,20.49
2023-03-13T13:20:42.143Z,20.80
2023-03-13T13:22:52.472Z,21.13
2023-03-13T13:24:56.534Z,21.56
2023-03-13T13:26:59.153Z,21.55
2023-03-13T13:29:41.485Z,21.54
2023-03-13T13:32:00.176Z,21.56
2023-03-13T13:34:02.792Z,21.55
2023-03-13T13:36:28.404Z,21.54
2023-03-13T13:38:36.785Z,21.42
2023-03-13T13:40:42.414Z,21.42
2023-03-13T13:42:49.325Z,21.37
2023-03-13T13:44:58.807Z,21.39
2023-03-13T13:47:03.032Z,21.22
2023-03-13T13:49:15.662Z,21.07
2023-03-13T13:51:28.667Z,20.84
2023-03-13T13:53:34.190Z,20.71
2023-03-13T13:55:44.928Z,20.70
2023-03-13T13:57:49.340Z,20.69
2023-03-13T13:59:54.281Z,20.65
2023-03-13T14:02:18.500Z,20.88
2023-03-13T14:04:28.927Z,20.97
2023-03-13T14:06:36.945Z,20.99
2023-03-13T14:08:41.469Z,20.96
2023-03-13T14:10:46.822Z,20.89
2023-03-13T14:12:53.997Z,20.79
2023-03-13T14:15:24.904Z,20.87
2023-03-13T14:17:28.793Z,20.86
2023-03-13T14:19:38.933Z,20.85
2023-03-13T14:21:41.799Z,20.94
2023-03-13T14:23:46.396Z,21.00
2023-03-13T14:25:50.452Z,21.02
2023-03-13T14:27:54.635Z,21.35
2023-03-13T14:30:03.788Z,21.50
2023-03-13T14:32:07.157Z,21.77
2023-03-13T14:34:14.092Z,21.91
2023-03-13T14:36:16.765Z,22.02
2023-03-13T14:38:21.107Z,22.14
2023-03-13T14:40:28.760Z,22.26
2023-03-13T14:42:39.989Z,22.51
2023-03-13T14:44:46.437Z,22.46
2023-03-13T14:46:49.091Z,22.56
2023-03-13T14:48:55.580Z,22.70
2023-03-13T14:51:14.775Z,22.73
2023-03-13T14:53:19.996Z,22.65
2023-03-13T14:55:35.142Z,22.67
2023-03-13T14:57:37.770Z,22.57
2023-03-13T14:59:40.391Z,22.56
2023-03-13T15:01:43.006Z,22.49
2023-03-13T15:03:46.860Z,22.26
2023-03-13T15:05:51.615Z,22.12
2023-03-13T15:07:56.153Z,22.10
2023-03-13T15:10:00.369Z,21.79
2023-03-13T15:12:02.914Z,21.69
2023-03-13T15:14:25.608Z,21.58
2023-03-13T15:16:29.508Z,21.50
2023-03-13T15:18:35.637Z,21.48
2023-03-13T15:20:38.183Z,21.57
2023-03-13T15:22:42.057Z,21.39
2023-03-13T15:24:59.582Z,21.42
2023-03-13T15:27:16.092Z,21.32
2023-03-13T15:29:20.135Z,21.25
2023-03-13T15:31:28.639Z,21.27
2023-03-13T15:33:31.688Z,21.15
2023-03-13T15:35:35.432Z,21.00
2023-03-13T15:37:38.027Z,20.95
2023-03-13T15:39:40.823Z,20.89
2023-03-13T15:41:44.731Z,20.71
2023-03-13T15:43:47.511Z,20.71
2023-03-13T15:45:52.329Z,20.58
2023-03-13T15:47:54.945Z,20.54
2023-03-13T15:49:57.520Z,20.55
2023-03-13T15:52:00.093Z,20.68
2023-03-13T15:54:03.167Z,20.76
2023-03-13T15:56:14.076Z,20.68
2023-03-13T15:58:18.795Z,20.69
2023-03-13T16:00:23.747Z,20.58
2023-03-13T16:02:26.288Z,20.49
2023-03-13T16:04:28.866Z,20.55
2023-03-13T16:06:32.330Z,20.36
2023-03-13T16:08:36.153Z,20.15
2023-03-13T16:10:39.514Z,20.17
2023-03-13T16:12:42.133Z,20.03
2023-03-13T16:14:46.941Z,20.01
2023-03-13T16:16:52.611Z,19.92
2023-03-13T16:18:59.082Z,19.84
2023-03-13T16:21:01.608Z,19.88
2023-03-13T16:23:04.233Z,19.88
2023-03-13T16:25:08.681Z,19.89
2023-03-13T16:27:14.983Z,19.75
2023-03-13T16:29:17.965Z,19.66
2023-03-13T16:31:23.740Z,19.59
2023-03-13T16:33:26.300Z,19.56
2023-03-13T16:35:29.791Z,19.48
2023-03-13T16:37:32.452Z,19.47
2023-03-13T16:39:34.982Z,19.35
2023-03-13T16:41:39.010Z,19.36
2023-03-13T16:43:41.594Z,19.34
2023-03-13T16:45:44.447Z,19.27
2023-03-13T16:47:49.677Z,19.15
2023-03-13T16:49:52.202Z,19.06
2023-03-13T16:51:54.907Z,18.95
2023-03-13T16:54:00.287Z,18.80
2023-03-13T16:56:02.861Z,18.70
2023-03-13T16:58:06.016Z,18.59
2023-03-13T17:00:14.830Z,18.50
2023-03-13T17:02:18.814Z,18.43
2023-03-13T17:04:22.762Z,18.41
2023-03-13T17:06:28.268Z,18.45
2023-03-13T17:08:30.813Z,18.39
2023-03-13T17:10:34.885Z,18.42
2023-03-13T17:12:37.409Z,18.32
2023-03-13T17:14:39.974Z,18.23
2023-03-13T17:16:44.628Z,18.26
2023-03-13T17:18:49.938Z,18.16
2023-03-13T17:20:54.702Z,18.13
2023-03-13T17:22:57.996Z,18.12
2023-03-13T17:25:00.539Z,18.04
2023-03-13T17:27:03.351Z,17.95
2023-03-13T17:29:07.303Z,17.85
2023-03-13T17:31:11.185Z,17.81
2023-03-13T17:33:16.672Z,17.74
2023-03-13T17:35:20.843Z,17.72
2023-03-13T17:37:26.626Z,17.65
2023-03-13T17:39:29.144Z,17.79
2023-03-13T17:41:33.426Z,17.68
2023-03-13T17:43:35.980Z,17.59
2023-03-13T17:45:38.530Z,17.57
2023-03-13T17:47:42.013Z,17.52
2023-03-13T17:49:45.391Z,17.47
2023-03-13T17:51:49.847Z,17.43
2023-03-13T17:53:55.084Z,17.37
2023-03-13T17:55:57.848Z,17.33
2023-03-13T17:58:00.397Z,17.34
2023-03-13T18:00:03.864Z,17.34
2023-03-13T18:02:06.517Z,17.31
2023-03-13T18:04:09.383Z,17.28
2023-03-13T18:06:19.438Z,17.23
2023-03-13T18:08:22.003Z,17.19
2023-03-13T18:10:27.858Z,17.14
2023-03-13T18:12:31.126Z,17.14
2023-03-13T18:14:36.024Z,17.11
2023-03-13T18:16:43.141Z,17.07
2023-03-13T18:18:46.130Z,17.03
2023-03-13T18:20:48.657Z,17.03
2023-03-13T18:22:51.837Z,17.06
2023-03-13T18:24:54.382Z,17.16
2023-03-13T18:26:58.268Z,17.03
2023-03-13T18:29:01.736Z,16.99
2023-03-13T18:31:04.536Z,16.97
2023-03-13T18:33:07.255Z,17.12
2023-03-13T18:35:10.255Z,17.18
2023-03-13T18:37:21.580Z,17.10
2023-03-13T18:39:24.183Z,17.08
2023-03-13T18:41:26.719Z,17.24
2023-03-13T18:43:30.632Z,17.25
2023-03-13T18:45:33.477Z,17.07
2023-03-13T18:47:36.828Z,17.13
2023-03-13T18:49:39.393Z,17.25
2023-03-13T18:51:41.969Z,17.13
2023-03-13T18:53:44.990Z,17.23
2023-03-13T18:55:47.564Z,17.10
2023-03-13T18:57:50.301Z,16.98
2023-03-13T18:59:54.188Z,16.82
2023-03-13T19:01:56.773Z,16.65
2023-03-13T19:04:00.784Z,16.49
2023-03-13T19:06:03.646Z,16.28
2023-03-13T19:08:06.248Z,16.26
2023-03-13T19:10:20.315Z,16.25
2023-03-13T19:12:25.981Z,16.25
2023-03-13T19:14:28.519Z,16.09
2023-03-13T19:16:37.895Z,16.04
2023-03-13T19:18:40.644Z,15.98
2023-03-13T19:20:43.331Z,15.97
2023-03-13T19:22:45.884Z,15.90
2023-03-13T19:24:48.545Z,15.84
2023-03-13T19:26:53.800Z,15.79
2023-03-13T19:28:56.826Z,15.80
2023-03-13T19:30:59.409Z,15.73
2023-03-13T19:33:03.376Z,15.71
2023-03-13T19:35:06.849Z,15.66
2023-03-13T19:37:10.948Z,15.63
2023-03-13T19:39:15.749Z,15.69
2023-03-13T19:41:18.366Z,15.71
2023-03-13T19:43:20.930Z,15.58
2023-03-13T19:45:23.486Z,15.53
2023-03-13T19:47:26.038Z,15.51
2023-03-13T19:49:30.023Z,15.47
2023-03-13T19:51:32.778Z,15.44
2023-03-13T19:53:35.347Z,15.40
2023-03-13T19:55:37.918Z,15.36
2023-03-13T19:57:40.489Z,15.26
2023-03-13T19:59:43.030Z,15.23
2023-03-13T20:01:46.798Z,15.25
2023-03-13T20:03:49.467Z,15.13
2023-03-13T20:05:53.367Z,15.19
2023-03-13T20:07:55.970Z,15.14
2023-03-13T20:09:58.586Z,14.92
2023-03-13T20:12:01.142Z,14.83
2023-03-13T20:14:04.650Z,14.71
2023-03-13T20:16:08.185Z,14.72
2023-03-13T20:18:11.241Z,14.71
2023-03-13T20:20:14.382Z,14.83
2023-03-13T20:22:18.303Z,14.81
2023-03-13T20:24:20.887Z,14.60
2023-03-13T20:26:23.429Z,14.50
2023-03-13T20:28:26.090Z,14.45
2023-03-13T20:30:28.629Z,14.33
2023-03-13T20:32:31.233Z,14.24
2023-03-13T20:34:34.796Z,14.21
2023-03-13T20:36:37.327Z,14.07
2023-03-13T20:38:42.311Z,14.11
2023-03-13T20:40:52.440Z,13.99
2023-03-13T20:42:55.486Z,13.66
2023-03-13T20:44:58.493Z,13.51
2023-03-13T20:47:01.052Z,13.21
2023-03-13T20:49:03.630Z,12.98
2023-03-13T20:51:07.102Z,12.96
2023-03-13T20:53:10.068Z,12.75
2023-03-13T20:55:14.033Z,12.75
2023-03-13T20:57:19.309Z,12.75
2023-03-13T20:59:21.877Z,12.80
2023-03-13T21:01:26.932Z,12.81
2023-03-13T21:03:31.786Z,12.78
2023-03-13T21:05:34.420Z,12.80
2023-03-13T21:07:36.990Z,12.75
2023-03-13T21:09:39.548Z,12.69
2023-03-13T21:11:43.513Z,12.53
2023-03-13T21:13:46.459Z,12.49
2023-03-13T21:15:49.032Z,12.49
2023-03-13T21:17:52.156Z,12.55
2023-03-13T21:19:55.189Z,12.52
2023-03-13T21:21:57.750Z,12.54
2023-03-13T21:24:00.283Z,12.47
2023-03-13T21:26:02.872Z,12.41
2023-03-13T21:28:06.873Z,12.38
2023-03-13T21:30:11.993Z,12.41
2023-03-13T21:32:15.688Z,12.49
2023-03-13T21:34:18.298Z,12.43
2023-03-13T21:36:22.455Z,12.41
2023-03-13T21:38:25.055Z,12.60
2023-03-13T21:40:28.600Z,12.73
2023-03-13T21:42:31.141Z,12.63
2023-03-13T21:44:35.812Z,12.55
2023-03-13T21:46:38.401Z,12.65
2023-03-13T21:48:42.266Z,12.50
2023-03-13T21:50:45.086Z,12.46
2023-03-13T21:52:47.676Z,12.44
2023-03-13T21:54:50.843Z,12.46
2023-03-13T21:56:53.712Z,12.47
2023-03-13T21:58:56.263Z,12.46
2023-03-13T22:01:00.803Z,12.48
2023-03-13T22:03:03.662Z,12.49
2023-03-13T22:05:06.865Z,12.51
2023-03-13T22:07:09.538Z,12.51
2023-03-13T22:09:12.095Z,12.51
2023-03-13T22:11:15.708Z,12.51
2023-03-13T22:13:18.334Z,12.54
2023-03-13T22:15:20.876Z,12.52
2023-03-13T22:17:24.810Z,12.52
2023-03-13T22:19:27.353Z,12.53
2023-03-13T22:21:29.885Z,12.51
2023-03-13T22:23:32.554Z,12.53
2023-03-13T22:25:35.170Z,12.50
2023-03-13T22:27:37.735Z,12.49
2023-03-13T22:29:40.374Z,12.42
2023-03-13T22:31:42.919Z,12.40
2023-03-13T22:33:46.846Z,12.37
2023-03-13T22:35:52.097Z,12.38
2023-03-13T22:37:54.832Z,12.35
2023-03-13T22:39:57.356Z,12.37
2023-03-13T22:41:59.915Z,12.38
2023-03-13T22:44:02.494Z,12.46
2023-03-13T22:46:06.992Z,12.51
2023-03-13T22:48:09.560Z,12.39
2023-03-13T22:50:14.023Z,12.40
2023-03-13T22:52:16.591Z,12.54
2023-03-13T22:54:19.134Z,12.37
2023-03-13T22:56:21.953Z,12.41
2023-03-13T22:58:24.515Z,12.38
2023-03-13T23:00:27.253Z,12.36
2023-03-13T23:02:30.338Z,12.46
2023-03-13T23:04:32.868Z,12.44
2023-03-13T23:06:36.755Z,12.34
2023-03-13T23:08:39.358Z,12.32
2023-03-13T23:10:43.117Z,12.32
2023-03-13T23:12:46.104Z,12.35
2023-03-13T23:14:48.830Z,12.24
2023-03-13T23:16:51.470Z,12.29
2023-03-13T23:18:54.051Z,12.28
2023-03-13T23:20:56.590Z,12.33
2023-03-13T23:23:00.580Z,12.24
2023-03-13T23:25:03.128Z,12.20
2023-03-13T23:27:06.469Z,12.18
2023-03-13T23:29:09.094Z,12.18
2023-03-13T23:31:13.249Z,12.12
2023-03-13T23:33:18.811Z,12.13
2023-03-13T23:35:21.956Z,12.09
2023-03-13T23:37:24.481Z,12.07
2023-03-13T23:39:28.442Z,12.19
2023-03-13T23:41:31.375Z,12.23
2023-03-13T23:43:34.204Z,12.22
2023-03-13T23:45:37.067Z,12.35
2023-03-13T23:47:39.642Z,12.17
2023-03-13T23:49:42.390Z,12.11
2023-03-13T23:51:44.929Z,12.24
2023-03-13T23:53:47.462Z,12.28
2023-03-13T23:55:59.147Z,12.15
2023-03-13T23:58:01.751Z,12.22
